Moyie Springs, ID

12:36 PM PST on March 03, 2015 (GMT -0800)
MAP BOUNDARY AIR (P025) ID PSD | Change Station
CLOSE
Current Station
Personal Weather Station
Location: Moyie Springs, ID
Elevation: 2283 ft
Nearby Weather Stations

Elev 2283 ft 48.73 °N, 116.29 °W | Updated 36 minutes ago

Overcast
Overcast
31 °F
Feels Like 31 °F
N
3
Wind Variable Wind from East
Gusts 0.0 mph

Today
High -- | Low -- °F
--% Chance of Precip.
Yesterday
High -- | Low -- °F
Precip. -- in
6:23 AM 5:31 PM
Waxing Gibbous, 97% visible
Pressure 30.14 in
Visibility 10.0 miles
Clouds Mostly Cloudy 4600 ft
Overcast 6000 ft
Windchill 31 °F
Dew Point 9 °F
Humidity 40%
Rainfall -999.00 in
Snow Depth Not available.
UV 1 out of 12
Pollen .50 out of 12
Air Quality Not available.
Flu Activity Not available.
METAR K65S 032015Z AUTO 00000KT 10SM BKN046 OVC060 M01/M14 A3014 RMK AO2

More Conditions Fewer Conditions

Pressure 30.14 in
Visibility 10.0 miles
Clouds Mostly Cloudy 4600 ft
Overcast 6000 ft
Windchill 31 °F
Dew Point 9 °F
Humidity 40%
Rainfall -999.00 in
Snow Depth Not available.
UV 1 out of 12
Pollen .50 out of 12
Air Quality Not available.
Flu Activity Not available.
METAR K65S 032015Z AUTO 00000KT 10SM BKN046 OVC060 M01/M14 A3014 RMK AO2

More Conditions Fewer Conditions

10-Day Weather Forecast

Almanac

Astronomy

Mar. 03, 2015 Rise Set
Actual Time
Civil Twilight
Nautical Twilight
Astronomical Twilight
Moon
Length of Visible Light
Length of Day
Tomorrow will be .
, % of the Moon is Illuminated

Today's Extremes

State Highs State Lows

Community

WunderPhotos

Upload Photos

1,802,246 photos uploaded!

WunderBlogs® & News

Nearby

Air Quality

  Air Quality AQ Index Pollutant
Not available.

Snow Depth

Station Depth Elevation

Earthquake Activity

City Distance Mag. Time & Date
Minimum magnitude displayed is 2.5.

Coastal Water Temperatures

Place Temperature

Nearby Weather Stations